Strona główna
METAR-TAF:

METAR-TAF

Lotnisko :

Gaithersburg, Maryland, Stany Zjednoczone

Szerokość geograficzna: 39-10-06N, Długość geograficzna: 077-09-58W, wysokość: 164 m

Aktualna obserwacja pogody

Raport powstał 34 minut temu, godzina 16:56 UTC
Wiatr 5 kt z kierunków zmiennych
Temperatura 30°C
Wilgotność 52%
Ciśnienie 1012 hPa
Widzialność: 16.1 km
Mało chmury na wysokości 4600 ft

METAR: KGAI 241656Z AUTO VRB05KT 10SM FEW046 30/19 A2989 RMK AO2 SLP128 T03000189 PNO $

czas: 13:30 (17:30 UTC)


TAF: brakujący

Obserwacja i prognoza pogody dla ponad 4000 lotnisk (raport METAR i TAF).

Dostępne stacje oznaczono żółtymi i czerwonymi punktami na mapie.

Najedź kursorem aby zobaczyć nazwę stacji.

Kliknij aby zobaczyć obserwacje i prognozy pogody.

Aby zmienić mapę: kliknij na zielony przycisk z czarnym krzyżykiem, aby powiększyć; na zielony przycisk z myślnikiem, aby pomniejszyć; na zielone strzałki, aby przejść do map sąsiednich.


METAR-TAF: